Time;durP1;ratioP1;P1;durP2;ratioP2;P2;SDS_P1;SDS_P2;PMS_P1;PMS_P2;Temp;Humidity;BMP_temperature;BMP_pressure;BME280_temperature;BME280_humidity;BME280_pressure;Samples;Min_cycle;Max_cycle;Signal;HPM_P1;HPM_P2
2022/04/23 09:41:41;;;;;;;;;;;;;;;17.02;0.00;60892.56;4831042;23;20441;-88
2022/04/23 09:44:27;;;;;;;;;;;;;;;17.00;0.00;60892.56;4768810;28;19931;-88
2022/04/23 09:47:06;;;;;;;;;;;;;;;21.08;0.00;60892.56;4748268;29;20009;-88
2022/04/23 09:49:54;;;;;;;;;;;;;;;-145.06;0.00;60892.56;4734960;29;19919;-87
2022/04/23 09:52:33;;;;;;;;;;;;;;;-145.06;0.00;60892.56;4724060;29;19915;-88
2022/04/23 09:55:12;;;;;;;;;;;;;;;-145.06;0.00;60892.56;4755694;29;19914;-86
2022/04/23 09:57:52;;;;;;;;;;;;;;;-145.06;0.00;60892.56;4733187;29;19915;-88
2022/04/23 10:00:30;;;;;;;;;;;;;;;-145.06;0.00;60892.56;4733103;29;20266;-87
2022/04/23 10:03:10;;;;;;;;;;;;;;;-145.06;0.00;60892.56;4721516;29;19928;-87
2022/04/23 10:05:49;;;;;;;;;;;;;;;-145.06;0.00;60892.56;4720061;29;20001;-87
2022/04/23 10:08:41;;;;;;;;;;;;;;;-145.06;0.00;60892.56;4759662;29;19997;-88
2022/04/23 10:11:30;;;;;;;;;;;;;;;-145.06;0.00;60892.56;4722620;29;19923;-88
2022/04/23 10:14:11;;;;;;;;;;;;;;;-145.06;0.00;60892.56;4718046;29;20353;-87
2022/04/23 10:16:52;;;;;;;;;;;;;;;-145.06;0.00;60892.56;4725377;29;19963;-87
2022/04/23 10:19:31;;;;;;;;;;;;;;;-145.06;0.00;60892.56;4730953;29;19919;-88
2022/04/23 10:22:21;;;;;;;;;;;;;;;18.28;0.00;60892.56;4758620;29;19915;-88
2022/04/23 10:25:09;;;;;;;;;;;;;;;-145.06;0.00;60892.56;4720221;29;19919;-88
2022/04/23 10:27:49;;;;;;;;;;;;;;;-145.06;0.00;60892.56;4750021;29;19915;-88
2022/04/23 10:30:30;;;;;;;;;;;;;;;-145.06;0.00;60892.56;4744348;29;19919;-88
2022/04/23 10:33:23;;;;;;;;;;;;;;;-145.06;0.00;60892.56;4761481;29;20099;-88
2022/04/23 10:36:09;;;;;;;;;;;;;;;-145.06;0.00;60892.56;4733220;29;19997;-88
2022/04/23 10:38:52;;;;;;;;;;;;;;;-145.06;0.00;60892.56;4733587;29;20373;-87
2022/04/23 10:41:31;;;;;;;;;;;;;;;-145.06;0.00;60892.56;4726080;29;19920;-88
2022/04/23 10:44:11;;;;;;;;;;;;;;;-145.06;0.00;60892.56;4745471;29;20353;-88
2022/04/23 10:46:51;;;;;;;;;;;;;;;-145.06;0.00;60892.56;4730470;29;19919;-88
2022/04/23 10:49:29;;;;;;;;;;;;;;;-145.06;0.00;60892.56;4729375;29;19923;-88
2022/04/23 10:52:08;;;;;;;;;;;;;;;-145.06;0.00;60892.56;4727014;29;19958;-88
2022/04/23 10:54:47;;;;;;;;;;;;;;;-145.06;0.00;60892.56;4747601;29;19915;-88
2022/04/23 10:57:26;;;;;;;;;;;;;;;-145.06;0.00;60892.56;4744402;29;19922;-87
2022/04/23 11:00:27;;;;;;;;;;;;;;;-145.06;0.00;60892.56;4741055;29;20049;-88
2022/04/23 11:03:06;;;;;;;;;;;;;;;-145.06;0.00;60892.56;4732280;29;19931;-88
2022/04/23 11:15:01;;;;;;;;;;;;;;;-145.06;0.00;60892.56;4728899;29;19923;-88
2022/04/23 11:17:44;;;;;;;;;;;;;;;-145.06;0.00;60892.56;4730801;29;20265;-87
2022/04/23 11:20:27;;;;;;;;;;;;;;;-145.06;0.00;60892.56;4748321;29;19919;-88
2022/04/23 11:23:07;;;;;;;;;;;;;;;-145.06;0.00;60892.56;4721095;29;19923;-87
2022/04/23 11:26:04;;;;;;;;;;;;;;;-145.06;0.00;60892.56;4727641;29;19987;-87
2022/04/23 11:28:44;;;;;;;;;;;;;;;-145.06;0.00;60892.56;4721708;29;19927;-87
2022/04/23 11:31:22;;;;;;;;;;;;;;;-145.06;0.00;60892.56;4721296;29;20174;-88
2022/04/23 11:34:02;;;;;;;;;;;;;;;-145.06;0.00;60892.56;4726478;29;19919;-87
2022/04/23 11:36:42;;;;;;;;;;;;;;;-145.06;0.00;60892.56;4728716;29;19963;-87
2022/04/23 11:39:26;;;;;;;;;;;;;;;-145.06;0.00;60892.56;4726180;29;20253;-87
2022/04/23 11:42:06;;;;;;;;;;;;;;;187.52;0.00;60892.56;4727213;29;19922;-88
2022/04/23 11:44:56;;;;;;;;;;;;;;;20.86;0.00;60892.56;4728291;29;19927;-88
2022/04/23 11:47:35;;;;;;;;;;;;;;;20.93;0.00;60892.56;4727103;29;19919;-87
2022/04/23 11:50:18;;;;;;;;;;;;;;;-145.06;0.00;60892.56;4721608;29;19919;-87
2022/04/23 11:52:58;;;;;;;;;;;;;;;-145.06;0.00;60892.56;4727169;29;19919;-88
2022/04/23 11:55:37;;;;;;;;;;;;;;;-145.06;0.00;60892.56;4721700;29;20018;-88
2022/04/23 11:58:18;;;;;;;;;;;;;;;-145.06;0.00;60892.56;4728729;29;20002;-88
2022/04/23 12:00:57;;;;;;;;;;;;;;;-145.06;0.00;60892.56;4744138;29;19923;-88
2022/04/23 12:03:36;;;;;;;;;;;;;;;-145.06;0.00;60892.56;4726146;29;19927;-88
2022/04/23 12:06:15;;;;;;;;;;;;;;;-145.06;0.00;60892.56;4747321;29;19998;-87
2022/04/23 12:09:06;;;;;;;;;;;;;;;-145.06;0.00;60892.56;4723646;29;19923;-88
2022/04/23 12:11:57;;;;;;;;;;;;;;;-145.06;0.00;60892.56;4749406;29;19919;-87
2022/04/23 12:14:44;;;;;;;;;;;;;;;-145.06;0.00;60892.56;4742977;29;19919;-88
2022/04/23 12:17:27;;;;;;;;;;;;;;;-145.06;0.00;60892.56;4727667;29;19919;-88
2022/04/23 12:20:10;;;;;;;;;;;;;;;-145.06;0.00;60892.56;4746711;29;19919;-88
2022/04/23 12:23:00;;;;;;;;;;;;;;;-145.06;0.00;60892.56;4717631;29;19927;-87
2022/04/23 12:25:39;;;;;;;;;;;;;;;-145.06;0.00;60892.56;4719878;29;19927;-87
2022/04/23 12:40:45;;;;;;;;;;;;;;;-145.06;0.00;60892.56;4732546;29;20076;-87
2022/04/23 12:43:25;;;;;;;;;;;;;;;-145.06;0.00;60892.56;4718088;29;19939;-87
2022/04/23 12:46:09;;;;;;;;;;;;;;;-145.06;0.00;60892.56;4733791;29;20278;-87
2022/04/23 12:48:55;;;;;;;;;;;;;;;-145.06;0.00;60892.56;4729975;29;19927;-86
2022/04/23 12:51:49;;;;;;;;;;;;;;;-145.06;0.00;60892.56;4722059;29;19919;-89
2022/04/23 12:54:28;;;;;;;;;;;;;;;-145.06;0.00;60892.56;4741883;29;20336;-87
2022/04/23 12:57:14;;;;;;;;;;;;;;;21.89;0.00;60892.56;4733931;29;20044;-87
2022/04/23 12:59:53;;;;;;;;;;;;;;;21.89;0.00;60892.56;4748018;28;19975;-88
2022/04/23 13:02:36;;;;;;;;;;;;;;;21.78;0.00;60892.56;4748218;28;19936;-87
2022/04/23 13:05:15;;;;;;;;;;;;;;;31.47;0.00;60892.56;4734407;29;19927;-87
2022/04/23 13:10:52;;;;;;;;;;;;;;;-145.06;0.00;60892.56;4744851;29;19915;-87
2022/04/23 13:13:31;;;;;;;;;;;;;;;-145.06;0.00;60892.56;4740582;29;19919;-87
2022/04/23 13:16:11;;;;;;;;;;;;;;;-145.06;0.00;60892.56;4728304;29;19923;-87
2022/04/23 13:18:54;;;;;;;;;;;;;;;-145.06;0.00;60892.56;4725320;29;19963;-87
2022/04/23 13:21:33;;;;;;;;;;;;;;;-145.06;0.00;60892.56;4745623;29;19915;-87
2022/04/23 13:24:12;;;;;;;;;;;;;;;-145.06;0.00;60892.56;4728513;29;19923;-87
2022/04/23 13:26:51;;;;;;;;;;;;;;;-145.06;0.00;60892.56;4726755;29;20380;-88
2022/04/23 13:29:30;;;;;;;;;;;;;;;-145.06;0.00;60892.56;4744699;29;19915;-87
2022/04/23 13:32:09;;;;;;;;;;;;;;;-145.06;0.00;60892.56;4725304;29;19920;-88
2022/04/23 13:34:48;;;;;;;;;;;;;;;-145.06;0.00;60892.56;4719264;29;19973;-89
2022/04/23 13:37:27;;;;;;;;;;;;;;;-145.06;0.00;60892.56;4735765;29;19920;-87
2022/04/23 13:40:07;;;;;;;;;;;;;;;-145.06;0.00;60892.56;4743239;29;20118;-87
2022/04/23 13:42:46;;;;;;;;;;;;;;;-145.06;0.00;60892.56;4722169;29;19923;-87
2022/04/23 13:45:25;;;;;;;;;;;;;;;-145.06;0.00;60892.56;4742411;29;19923;-87
2022/04/23 13:48:04;;;;;;;;;;;;;;;-145.06;0.00;60892.56;4719985;29;19919;-87
2022/04/23 13:50:43;;;;;;;;;;;;;;;-145.06;0.00;60892.56;4724888;29;19970;-87
2022/04/23 13:53:22;;;;;;;;;;;;;;;-145.06;0.00;60892.56;4725900;29;20703;-87
2022/04/23 13:56:01;;;;;;;;;;;;;;;-145.06;0.00;60892.56;4725399;29;19927;-86
2022/04/23 13:58:40;;;;;;;;;;;;;;;-145.06;0.00;60892.56;4742083;29;19923;-87
2022/04/23 14:01:19;;;;;;;;;;;;;;;-145.06;0.00;60892.56;4725190;29;20006;-87
2022/04/23 14:10:07;;;;;;;;;;;;;;;-145.06;0.00;60892.56;4741636;29;19922;-88
2022/04/23 14:12:46;;;;;;;;;;;;;;;-145.06;0.00;60892.56;4724068;29;20380;-88
2022/04/23 14:15:25;;;;;;;;;;;;;;;-145.06;0.00;60892.56;4724799;29;19923;-87
2022/04/23 14:18:06;;;;;;;;;;;;;;;-145.06;0.00;60892.56;4722034;29;19923;-88
2022/04/23 14:20:45;;;;;;;;;;;;;;;-145.06;0.00;60892.56;4740330;29;20326;-87
2022/04/23 14:23:24;;;;;;;;;;;;;;;-145.06;0.00;60892.56;4722868;29;19970;-87
2022/04/23 14:26:03;;;;;;;;;;;;;;;-145.06;0.00;60892.56;4741670;29;20408;-86
2022/04/23 14:28:42;;;;;;;;;;;;;;;-145.06;0.00;60892.56;4743426;29;19919;-86
2022/04/23 14:31:21;;;;;;;;;;;;;;;-145.06;0.00;60892.56;4721314;29;20333;-86
2022/04/23 14:34:00;;;;;;;;;;;;;;;-145.06;0.00;60892.56;4743094;29;19923;-88
2022/04/23 14:36:39;;;;;;;;;;;;;;;21.08;0.00;60892.56;4721725;29;19927;-86
2022/04/23 14:39:18;;;;;;;;;;;;;;;-145.06;0.00;60892.56;4722814;29;20010;-87
2022/04/23 14:41:57;;;;;;;;;;;;;;;21.05;0.00;60892.56;4718458;29;19927;-86
2022/04/23 14:44:36;;;;;;;;;;;;;;;21.02;0.00;60892.56;4720135;29;19927;-87
2022/04/23 14:47:15;;;;;;;;;;;;;;;-145.06;0.00;60892.56;4720331;29;20460;-88
2022/04/23 14:49:55;;;;;;;;;;;;;;;20.98;0.00;60892.56;4737593;29;19919;-87
2022/04/23 14:55:32;;;;;;;;;;;;;;;21.08;0.00;60892.56;4747749;29;19954;-87
2022/04/23 14:58:11;;;;;;;;;;;;;;;20.95;0.00;60892.56;4729780;29;19920;-87
2022/04/23 15:00:50;;;;;;;;;;;;;;;20.94;0.00;60892.56;4720315;29;19919;-87
2022/04/23 15:03:29;;;;;;;;;;;;;;;20.94;0.00;60892.56;4749780;29;19931;-87
2022/04/23 15:06:08;;;;;;;;;;;;;;;20.92;0.00;60892.56;4727447;29;19923;-87
2022/04/23 15:08:47;;;;;;;;;;;;;;;20.89;0.00;60892.56;4741247;29;19915;-87
2022/04/23 15:11:26;;;;;;;;;;;;;;;20.91;0.00;60892.56;4740491;29;20191;-88
2022/04/23 15:14:05;;;;;;;;;;;;;;;20.78;0.00;60892.56;4725785;29;19919;-87
2022/04/23 15:16:45;;;;;;;;;;;;;;;-145.06;0.00;60892.56;4727293;29;19923;-88
2022/04/23 15:19:26;;;;;;;;;;;;;;;-145.06;0.00;60892.56;4721889;29;19920;-87
2022/04/23 15:22:05;;;;;;;;;;;;;;;-145.06;0.00;60892.56;4719561;29;19923;-87
2022/04/23 15:24:43;;;;;;;;;;;;;;;-145.06;0.00;60892.56;4731817;29;19919;-87
2022/04/23 15:27:22;;;;;;;;;;;;;;;-145.06;0.00;60892.56;4727261;29;19997;-87
2022/04/23 15:30:02;;;;;;;;;;;;;;;-145.06;0.00;60892.56;4730594;29;20464;-87
2022/04/23 15:32:41;;;;;;;;;;;;;;;-145.06;0.00;60892.56;4727921;29;20010;-88
2022/04/23 15:35:20;;;;;;;;;;;;;;;-145.06;0.00;60892.56;4731702;29;19919;-87
2022/04/23 15:37:59;;;;;;;;;;;;;;;-145.06;0.00;60892.56;4735807;29;20265;-87
2022/04/23 15:40:38;;;;;;;;;;;;;;;-145.06;0.00;60892.56;4729124;29;19951;-88
2022/04/23 15:43:17;;;;;;;;;;;;;;;-145.06;0.00;60892.56;4715528;29;19970;-87
2022/04/23 15:45:59;;;;;;;;;;;;;;;-145.06;0.00;60892.56;4732989;29;19958;-88
2022/04/23 15:48:39;;;;;;;;;;;;;;;-145.06;0.00;60892.56;4727351;29;20262;-87
2022/04/23 15:51:18;;;;;;;;;;;;;;;-145.06;0.00;60892.56;4740899;29;19923;-88
2022/04/23 15:53:57;;;;;;;;;;;;;;;-145.06;0.00;60892.56;4725796;29;19966;-89
2022/04/23 15:56:37;;;;;;;;;;;;;;;-145.06;0.00;60892.56;4728064;29;19919;-88
2022/04/23 15:59:16;;;;;;;;;;;;;;;-145.06;0.00;60892.56;4741678;29;20258;-88
2022/04/23 16:01:55;;;;;;;;;;;;;;;-145.06;0.00;60892.56;4731367;29;19915;-87
2022/04/23 16:04:35;;;;;;;;;;;;;;;-145.06;0.00;60892.56;4730555;29;19927;-87
2022/04/23 16:07:13;;;;;;;;;;;;;;;-145.06;0.00;60892.56;4727863;29;19915;-88
2022/04/23 16:09:55;;;;;;;;;;;;;;;-145.06;0.00;60892.56;4730534;29;19919;-87
2022/04/23 16:12:35;;;;;;;;;;;;;;;-145.06;0.00;60892.56;4737560;29;19915;-87
2022/04/23 16:15:14;;;;;;;;;;;;;;;-145.06;0.00;60892.56;4719262;29;19915;-87
2022/04/23 16:17:53;;;;;;;;;;;;;;;-145.06;0.00;60892.56;4730993;29;19922;-87
2022/04/23 16:20:32;;;;;;;;;;;;;;;-145.06;0.00;60892.56;4755665;29;19918;-87
2022/04/23 16:23:13;;;;;;;;;;;;;;;-145.06;0.00;60892.56;4720303;29;20528;-88
2022/04/23 16:25:52;;;;;;;;;;;;;;;-145.06;0.00;60892.56;4743831;29;20620;-87
2022/04/23 16:28:31;;;;;;;;;;;;;;;-145.06;0.00;60892.56;4730366;29;19958;-87
2022/04/23 16:31:10;;;;;;;;;;;;;;;19.76;0.00;60892.56;4729989;29;19923;-88
2022/04/23 16:33:51;;;;;;;;;;;;;;;19.70;0.00;60892.56;4730903;29;19919;-87
2022/04/23 16:48:22;;;;;;;;;;;;;;;-145.06;0.00;60892.56;4763551;28;19963;-88
2022/04/23 16:51:03;;;;;;;;;;;;;;;-145.06;0.00;60892.56;4771691;28;19927;-88
2022/04/23 16:53:45;;;;;;;;;;;;;;;-145.06;0.00;60892.56;4735257;29;19915;-87
2022/04/23 16:56:24;;;;;;;;;;;;;;;-145.06;0.00;60892.56;4730684;29;19920;-89
2022/04/23 16:59:03;;;;;;;;;;;;;;;-145.06;0.00;60892.56;4732900;29;19919;-88
2022/04/23 17:01:42;;;;;;;;;;;;;;;-145.06;0.00;60892.56;4740778;29;19915;-88
2022/04/23 17:04:22;;;;;;;;;;;;;;;-145.06;0.00;60892.56;4745979;29;19943;-88
2022/04/23 17:07:00;;;;;;;;;;;;;;;-145.06;0.00;60892.56;4736941;29;19919;-88
2022/04/23 17:09:39;;;;;;;;;;;;;;;-145.06;0.00;60892.56;4717549;29;19919;-87
2022/04/23 17:12:18;;;;;;;;;;;;;;;-145.06;0.00;60892.56;4744477;29;19923;-87
2022/04/23 17:14:57;;;;;;;;;;;;;;;-145.06;0.00;60892.56;4754090;29;19965;-86
2022/04/23 17:17:37;;;;;;;;;;;;;;;-145.06;0.00;60892.56;4730387;29;20471;-87
2022/04/23 17:20:16;;;;;;;;;;;;;;;-145.06;0.00;60892.56;4728549;29;19927;-87
2022/04/23 17:22:55;;;;;;;;;;;;;;;-145.06;0.00;60892.56;4725855;29;19919;-87
2022/04/23 17:25:33;;;;;;;;;;;;;;;-145.06;0.00;60892.56;4720250;29;19923;-87
2022/04/23 17:28:12;;;;;;;;;;;;;;;-145.06;0.00;60892.56;4746349;29;19954;-87
2022/04/23 17:30:52;;;;;;;;;;;;;;;-145.06;0.00;60892.56;4736340;29;20487;-86
2022/04/23 17:33:32;;;;;;;;;;;;;;;-145.06;0.00;60892.56;4742303;29;19919;-87
2022/04/23 17:36:14;;;;;;;;;;;;;;;-145.06;0.00;60892.56;4748250;29;19915;-87
2022/04/23 17:38:56;;;;;;;;;;;;;;;-145.06;0.00;60892.56;4740097;29;19923;-87
2022/04/23 17:41:35;;;;;;;;;;;;;;;18.37;0.00;60892.56;4741039;29;19919;-87
2022/04/23 17:44:14;;;;;;;;;;;;;;;18.33;0.00;60892.56;4738700;29;19919;-86
2022/04/23 17:46:53;;;;;;;;;;;;;;;18.29;0.00;60892.56;4756078;29;20459;-88
2022/04/23 17:49:34;;;;;;;;;;;;;;;18.23;0.00;60892.56;4731338;29;19923;-87
2022/04/23 17:52:15;;;;;;;;;;;;;;;18.48;0.00;60892.56;4746155;29;19923;-86
2022/04/23 17:54:54;;;;;;;;;;;;;;;-145.06;0.00;60892.56;4748760;29;19930;-87
2022/04/23 17:57:35;;;;;;;;;;;;;;;-145.06;0.00;60892.56;4733340;29;20350;-87
2022/04/23 18:09:08;;;;;;;;;;;;;;;-145.06;0.00;60892.56;4751671;29;19923;-87
2022/04/23 18:11:48;;;;;;;;;;;;;;;-145.06;0.00;60892.56;4733959;29;19919;-86
2022/04/23 18:14:27;;;;;;;;;;;;;;;-145.06;0.00;60892.56;4753148;29;20021;-87
2022/04/23 18:17:06;;;;;;;;;;;;;;;-145.06;0.00;60892.56;4730688;29;19919;-87
2022/04/23 18:19:46;;;;;;;;;;;;;;;-145.06;0.00;60892.56;4746110;29;19923;-86
2022/04/23 18:22:25;;;;;;;;;;;;;;;-145.06;0.00;60892.56;4743928;29;19915;-86
2022/04/23 18:25:04;;;;;;;;;;;;;;;-145.06;0.00;60892.56;4740402;29;19962;-87
2022/04/23 18:27:43;;;;;;;;;;;;;;;-145.06;0.00;60892.56;4734351;29;20374;-87
2022/04/23 18:30:22;;;;;;;;;;;;;;;-145.06;0.00;60892.56;4738039;29;19927;-87
2022/04/23 18:33:01;;;;;;;;;;;;;;;-145.06;0.00;60892.56;4733031;29;19958;-87
2022/04/23 18:35:40;;;;;;;;;;;;;;;-145.06;0.00;60892.56;4746364;29;19970;-89
2022/04/23 18:38:19;;;;;;;;;;;;;;;-145.06;0.00;60892.56;4754870;29;19962;-87
2022/04/23 18:40:58;;;;;;;;;;;;;;;-145.06;0.00;60892.56;4721966;29;19919;-87
2022/04/23 18:43:37;;;;;;;;;;;;;;;-145.06;0.00;60892.56;4754093;29;19923;-88
2022/04/23 18:46:17;;;;;;;;;;;;;;;-145.06;0.00;60892.56;4743327;29;20010;-87
2022/04/23 18:48:56;;;;;;;;;;;;;;;17.17;0.00;60892.56;4734738;29;19955;-89
2022/04/23 18:51:38;;;;;;;;;;;;;;;17.12;0.00;60892.56;4735749;29;19916;-88
2022/04/23 18:54:17;;;;;;;;;;;;;;;-145.06;0.00;60892.56;4753024;29;19919;-88
2022/04/23 18:56:56;;;;;;;;;;;;;;;-145.06;0.00;60892.56;4729711;29;20006;-88
2022/04/23 18:59:35;;;;;;;;;;;;;;;-145.06;0.00;60892.56;4733730;29;19923;-88
2022/04/23 19:02:14;;;;;;;;;;;;;;;17.02;0.00;60892.56;4727308;29;19919;-88
2022/04/23 19:04:53;;;;;;;;;;;;;;;17.02;0.00;60892.56;4755502;28;19931;-87
2022/04/23 19:07:32;;;;;;;;;;;;;;;-145.06;0.00;60892.56;4731894;29;19919;-87
2022/04/23 19:10:12;;;;;;;;;;;;;;;-145.06;0.00;60892.56;4731934;29;20317;-86
2022/04/23 19:12:51;;;;;;;;;;;;;;;-145.06;0.00;60892.56;4731253;29;20033;-87
2022/04/23 19:15:30;;;;;;;;;;;;;;;-145.06;0.00;60892.56;4749346;29;19942;-86
2022/04/23 19:18:09;;;;;;;;;;;;;;;-145.06;0.00;60892.56;4721355;29;20018;-86
2022/04/23 19:29:42;;;;;;;;;;;;;;;-145.06;0.00;60892.56;4736544;29;19966;-88
2022/04/23 19:32:21;;;;;;;;;;;;;;;-145.06;0.00;60892.56;4729372;29;20385;-88
2022/04/23 19:35:00;;;;;;;;;;;;;;;-145.06;0.00;60892.56;4760798;29;19923;-88
2022/04/23 19:37:39;;;;;;;;;;;;;;;-145.06;0.00;60892.56;4730261;29;19919;-88
2022/04/23 19:40:18;;;;;;;;;;;;;;;-145.06;0.00;60892.56;4749447;29;19919;-88
2022/04/23 19:42:57;;;;;;;;;;;;;;;-145.06;0.00;60892.56;4743836;29;19932;-88
2022/04/23 19:45:37;;;;;;;;;;;;;;;-145.06;0.00;60892.56;4746558;29;19923;-88
2022/04/23 19:48:15;;;;;;;;;;;;;;;-145.06;0.00;60892.56;4725929;29;19915;-88
2022/04/23 19:50:54;;;;;;;;;;;;;;;-145.06;0.00;60892.56;4738436;29;19950;-89
2022/04/23 19:53:33;;;;;;;;;;;;;;;-145.06;0.00;60892.56;4729096;29;19916;-88
2022/04/23 19:56:12;;;;;;;;;;;;;;;-145.06;0.00;60892.56;4724878;29;19919;-89
2022/04/23 19:58:51;;;;;;;;;;;;;;;-145.06;0.00;60892.56;4722552;29;19919;-86
2022/04/23 20:01:30;;;;;;;;;;;;;;;-145.06;0.00;60892.56;4736524;29;20365;-86
2022/04/23 20:04:09;;;;;;;;;;;;;;;-145.06;0.00;60892.56;4736911;29;19922;-89
2022/04/23 20:06:48;;;;;;;;;;;;;;;-145.06;0.00;60892.56;4718973;29;19923;-88
2022/04/23 20:09:27;;;;;;;;;;;;;;;-145.06;0.00;60892.56;4717694;29;19950;-88
2022/04/23 20:12:07;;;;;;;;;;;;;;;-145.06;0.00;60892.56;4756496;29;19993;-88
2022/04/23 20:14:46;;;;;;;;;;;;;;;-145.06;0.00;60892.56;4743852;29;19916;-87
2022/04/23 20:17:25;;;;;;;;;;;;;;;-145.06;0.00;60892.56;4727111;29;19955;-88
2022/04/23 20:20:05;;;;;;;;;;;;;;;-145.06;0.00;60892.56;4760111;29;19954;-88
2022/04/23 20:22:45;;;;;;;;;;;;;;;-145.06;0.00;60892.56;4750431;29;19979;-89
2022/04/23 20:25:24;;;;;;;;;;;;;;;-145.06;0.00;60892.56;4772494;28;19915;-89
2022/04/23 20:28:03;;;;;;;;;;;;;;;-145.06;0.00;60892.56;4735831;29;19927;-89
2022/04/23 20:30:43;;;;;;;;;;;;;;;-145.06;0.00;60892.56;4731581;29;20017;-88
2022/04/23 20:33:21;;;;;;;;;;;;;;;-145.06;0.00;60892.56;4732167;29;19919;-88
2022/04/23 20:38:59;;;;;;;;;;;;;;;-145.06;0.00;60892.56;4738607;29;19920;-89
2022/04/23 20:41:38;;;;;;;;;;;;;;;-145.06;0.00;60892.56;4731894;29;19927;-88
2022/04/23 20:44:18;;;;;;;;;;;;;;;-145.06;0.00;60892.56;4733802;29;19923;-88
2022/04/23 20:46:57;;;;;;;;;;;;;;;-145.06;0.00;60892.56;4722484;29;19923;-87
2022/04/23 20:49:36;;;;;;;;;;;;;;;-145.06;0.00;60892.56;4735468;29;19919;-88
2022/04/23 20:55:12;;;;;;;;;;;;;;;-145.06;0.00;60892.56;4748539;29;19923;-88
2022/04/23 20:57:51;;;;;;;;;;;;;;;-145.06;0.00;60892.56;4741504;29;19923;-87
2022/04/23 21:00:31;;;;;;;;;;;;;;;-145.06;0.00;60892.56;4724280;29;20010;-87
2022/04/23 21:03:10;;;;;;;;;;;;;;;-145.06;0.00;60892.56;4733788;29;19923;-86
2022/04/23 21:05:50;;;;;;;;;;;;;;;-145.06;0.00;60892.56;4750074;29;19938;-87
2022/04/23 21:08:29;;;;;;;;;;;;;;;-145.06;0.00;60892.56;4732208;29;19923;-88
2022/04/23 21:11:08;;;;;;;;;;;;;;;-145.06;0.00;60892.56;4758487;29;19922;-87
2022/04/23 21:13:47;;;;;;;;;;;;;;;-145.06;0.00;60892.56;4737423;29;19927;-87
2022/04/23 21:16:26;;;;;;;;;;;;;;;-145.06;0.00;60892.56;4730686;29;19919;-87
2022/04/23 21:19:05;;;;;;;;;;;;;;;-145.06;0.00;60892.56;4731242;29;19923;-87
2022/04/23 21:21:44;;;;;;;;;;;;;;;-145.06;0.00;60892.56;4757309;29;20289;-87
2022/04/23 21:24:23;;;;;;;;;;;;;;;-145.06;0.00;60892.56;4734881;29;19970;-87
2022/04/23 21:27:03;;;;;;;;;;;;;;;-145.06;0.00;60892.56;4734033;29;19919;-87
2022/04/23 21:29:42;;;;;;;;;;;;;;;-145.06;0.00;60892.56;4727063;29;19920;-88
2022/04/23 21:32:21;;;;;;;;;;;;;;;-145.06;0.00;60892.56;4759314;29;19919;-87
2022/04/23 21:35:00;;;;;;;;;;;;;;;-145.06;0.00;60892.56;4732841;29;20002;-88
2022/04/23 21:37:39;;;;;;;;;;;;;;;-145.06;0.00;60892.56;4731163;29;19919;-87
2022/04/23 21:40:18;;;;;;;;;;;;;;;-145.06;0.00;60892.56;4733067;29;19923;-87
2022/04/23 21:45:56;;;;;;;;;;;;;;;-145.06;0.00;60892.56;4755061;29;20313;-87
2022/04/23 21:48:35;;;;;;;;;;;;;;;-145.06;0.00;60892.56;4741508;29;19919;-87
2022/04/23 21:51:14;;;;;;;;;;;;;;;-145.06;0.00;60892.56;4731599;29;19919;-87
2022/04/23 21:53:53;;;;;;;;;;;;;;;-145.06;0.00;60892.56;4733838;29;19966;-88
2022/04/23 21:56:32;;;;;;;;;;;;;;;-145.06;0.00;60892.56;4730834;29;19927;-87
2022/04/23 21:59:12;;;;;;;;;;;;;;;-145.06;0.00;60892.56;4750521;29;19923;-87
2022/04/23 22:01:55;;;;;;;;;;;;;;;-145.06;0.00;60892.56;4734347;29;19919;-87
2022/04/23 22:04:34;;;;;;;;;;;;;;;-145.06;0.00;60892.56;4732690;29;20018;-87
2022/04/23 22:07:13;;;;;;;;;;;;;;;15.83;0.00;60892.56;4731461;29;19959;-88
2022/04/23 22:09:53;;;;;;;;;;;;;;;15.81;0.00;60892.56;4743409;29;19915;-87
2022/04/23 22:12:32;;;;;;;;;;;;;;;15.76;0.00;60892.56;4735972;29;19922;-88
2022/04/23 22:15:11;;;;;;;;;;;;;;;15.74;0.00;60892.56;4752147;29;19923;-87
2022/04/23 22:17:50;;;;;;;;;;;;;;;15.71;0.00;60892.56;4731929;29;19923;-86
2022/04/23 22:20:29;;;;;;;;;;;;;;;15.68;0.00;60892.56;4729703;29;20558;-88
2022/04/23 22:23:08;;;;;;;;;;;;;;;15.72;0.00;60892.56;4754168;29;19931;-88
2022/04/23 22:25:47;;;;;;;;;;;;;;;15.62;0.00;60892.56;4732874;29;19923;-87
2022/04/23 22:28:26;;;;;;;;;;;;;;;15.59;0.00;60892.56;4732799;29;19919;-87
2022/04/23 22:31:05;;;;;;;;;;;;;;;15.58;0.00;60892.56;4729603;29;19963;-87
2022/04/23 22:33:44;;;;;;;;;;;;;;;-145.06;0.00;60892.56;4733736;29;19923;-88
2022/04/23 22:36:24;;;;;;;;;;;;;;;-145.06;0.00;60892.56;4728312;29;19920;-87
2022/04/23 22:39:03;;;;;;;;;;;;;;;-145.06;0.00;60892.56;4752904;29;19919;-87
2022/04/23 22:41:42;;;;;;;;;;;;;;;-145.06;0.00;60892.56;4760106;29;19919;-87
2022/04/23 22:44:22;;;;;;;;;;;;;;;-145.06;0.00;60892.56;4723247;29;20018;-87
2022/04/23 22:47:03;;;;;;;;;;;;;;;-145.06;0.00;60892.56;4736185;29;20005;-88
2022/04/23 22:49:42;;;;;;;;;;;;;;;-145.06;0.00;60892.56;4724746;29;19919;-88
2022/04/23 22:52:20;;;;;;;;;;;;;;;-145.06;0.00;60892.56;4732882;29;19970;-87
2022/04/23 22:55:00;;;;;;;;;;;;;;;-145.06;0.00;60892.56;4727090;29;19923;-86
2022/04/23 22:57:38;;;;;;;;;;;;;;;-145.06;0.00;60892.56;4730345;29;19923;-87
2022/04/23 23:00:18;;;;;;;;;;;;;;;-145.06;0.00;60892.56;4737994;29;19990;-88
2022/04/23 23:02:58;;;;;;;;;;;;;;;-145.06;0.00;60892.56;4756368;29;19923;-87
2022/04/23 23:05:37;;;;;;;;;;;;;;;-145.06;0.00;60892.56;4739056;29;20447;-87
2022/04/23 23:08:16;;;;;;;;;;;;;;;-145.06;0.00;60892.56;4755036;29;19924;-88
2022/04/23 23:10:54;;;;;;;;;;;;;;;-145.06;0.00;60892.56;4740345;29;20041;-88
2022/04/23 23:13:34;;;;;;;;;;;;;;;-145.06;0.00;60892.56;4753539;29;19951;-86
2022/04/23 23:16:15;;;;;;;;;;;;;;;-145.06;0.00;60892.56;4752362;29;20282;-87
2022/04/23 23:18:54;;;;;;;;;;;;;;;-145.06;0.00;60892.56;4742204;29;19923;-87
2022/04/23 23:21:33;;;;;;;;;;;;;;;-145.06;0.00;60892.56;4746056;29;19970;-88
2022/04/23 23:24:12;;;;;;;;;;;;;;;-145.06;0.00;60892.56;4721413;29;19923;-87
2022/04/23 23:26:51;;;;;;;;;;;;;;;-145.06;0.00;60892.56;4729689;29;19919;-87
2022/04/23 23:29:30;;;;;;;;;;;;;;;-145.06;0.00;60892.56;4732245;29;20373;-88
2022/04/23 23:32:09;;;;;;;;;;;;;;;-145.06;0.00;60892.56;4739114;29;19982;-88
2022/04/23 23:34:48;;;;;;;;;;;;;;;-145.06;0.00;60892.56;4734557;29;19927;-88
2022/04/23 23:37:27;;;;;;;;;;;;;;;-145.06;0.00;60892.56;4740256;29;19922;-87
2022/04/23 23:40:06;;;;;;;;;;;;;;;-145.06;0.00;60892.56;4729068;29;19923;-86
2022/04/23 23:42:44;;;;;;;;;;;;;;;-145.06;0.00;60892.56;4729858;29;19961;-86
2022/04/23 23:45:24;;;;;;;;;;;;;;;-145.06;0.00;60892.56;4746961;29;19923;-86
2022/04/23 23:48:03;;;;;;;;;;;;;;;-145.06;0.00;60892.56;4740956;29;20001;-86
2022/04/23 23:50:42;;;;;;;;;;;;;;;-145.06;0.00;60892.56;4756298;29;20630;-87
2022/04/23 23:53:20;;;;;;;;;;;;;;;-145.06;0.00;60892.56;4738636;29;19919;-86
2022/04/23 23:55:59;;;;;;;;;;;;;;;-145.06;0.00;60892.56;4753294;28;19931;-86
2022/04/23 23:58:39;;;;;;;;;;;;;;;-145.06;0.00;60892.56;4753672;29;19919;-87
